createdAt,value
2022-07-25T00:02:34.002Z,9.90
2022-07-25T00:05:37.994Z,10.20
2022-07-25T00:08:39.814Z,14.80
2022-07-25T00:11:41.867Z,11.83
2022-07-25T00:14:43.493Z,13.67
2022-07-25T00:17:45.224Z,10.80
2022-07-25T00:20:47.411Z,10.63
2022-07-25T00:23:49.120Z,11.80
2022-07-25T00:26:50.700Z,12.17
2022-07-25T00:29:52.381Z,11.53
2022-07-25T00:32:53.991Z,13.93
2022-07-25T00:35:55.592Z,11.40
2022-07-25T00:38:57.249Z,12.53
2022-07-25T00:41:58.846Z,11.70
2022-07-25T00:45:00.460Z,12.00
2022-07-25T00:48:02.047Z,11.60
2022-07-25T00:51:04.356Z,11.50
2022-07-25T00:54:06.641Z,10.93
2022-07-25T00:57:08.475Z,10.60
2022-07-25T01:00:13.734Z,11.37
2022-07-25T01:03:16.088Z,11.00
2022-07-25T01:06:17.803Z,10.37
2022-07-25T01:09:20.521Z,11.93
2022-07-25T01:12:22.133Z,10.77
2022-07-25T01:15:24.913Z,11.43
2022-07-25T01:18:26.641Z,10.20
2022-07-25T01:21:28.313Z,10.60
2022-07-25T01:24:29.977Z,11.13
2022-07-25T01:27:32.123Z,12.63
2022-07-25T01:30:33.735Z,10.67
2022-07-25T01:33:35.430Z,14.43
2022-07-25T01:36:37.068Z,13.77
2022-07-25T01:39:38.665Z,13.10
2022-07-25T01:42:40.422Z,10.37
2022-07-25T01:45:42.190Z,11.13
2022-07-25T01:48:43.990Z,10.83
2022-07-25T01:51:45.698Z,10.10
2022-07-25T01:54:48.203Z,12.07
2022-07-25T01:57:50.809Z,12.10
2022-07-25T02:00:53.879Z,11.83
2022-07-25T02:03:55.501Z,13.27
2022-07-25T02:06:57.155Z,10.43
2022-07-25T02:09:58.764Z,12.63
2022-07-25T02:13:01.403Z,11.67
2022-07-25T02:16:03.134Z,11.97
2022-07-25T02:19:04.856Z,12.57
2022-07-25T02:22:06.718Z,11.40
2022-07-25T02:25:08.887Z,12.53
2022-07-25T02:28:10.667Z,12.20
2022-07-25T02:31:12.629Z,11.43
2022-07-25T02:34:14.342Z,10.90
2022-07-25T02:37:15.972Z,12.53
2022-07-25T02:40:17.614Z,12.50
2022-07-25T02:43:19.993Z,15.90
2022-07-25T02:46:21.699Z,11.30
2022-07-25T02:49:23.397Z,12.97
2022-07-25T02:52:25.032Z,12.47
2022-07-25T02:55:26.884Z,12.50
2022-07-25T02:58:28.493Z,13.57
2022-07-25T03:01:30.181Z,14.87
2022-07-25T03:04:31.946Z,14.20
2022-07-25T03:07:33.746Z,11.87
2022-07-25T03:10:36.340Z,14.47
2022-07-25T03:13:37.967Z,12.37
2022-07-25T03:16:39.632Z,15.33
2022-07-25T03:19:41.340Z,11.60
2022-07-25T03:22:42.978Z,12.53
2022-07-25T03:25:44.636Z,13.70
2022-07-25T03:28:46.246Z,14.80
2022-07-25T03:31:47.942Z,12.23
2022-07-25T03:34:49.707Z,15.97
2022-07-25T03:37:51.525Z,14.23
2022-07-25T03:40:53.134Z,14.20
2022-07-25T03:43:54.781Z,14.07
2022-07-25T03:46:56.366Z,12.60
2022-07-25T03:49:57.981Z,16.10
2022-07-25T03:52:59.646Z,14.10
2022-07-25T03:56:01.238Z,12.83
2022-07-25T03:59:03.949Z,18.40
2022-07-25T04:02:05.673Z,13.30
2022-07-25T04:05:08.738Z,16.10
2022-07-25T04:08:10.394Z,12.97
2022-07-25T04:11:12.023Z,15.23
2022-07-25T04:14:14.266Z,14.90
2022-07-25T04:17:15.919Z,15.03
2022-07-25T04:20:17.707Z,15.77
2022-07-25T04:23:19.309Z,14.03
2022-07-25T04:26:20.993Z,14.90
2022-07-25T04:29:22.577Z,14.80
2022-07-25T04:32:26.762Z,17.40
2022-07-25T04:35:28.535Z,13.70
2022-07-25T04:38:30.167Z,18.83
2022-07-25T04:41:32.111Z,14.10
2022-07-25T04:44:33.947Z,13.87
2022-07-25T04:47:35.572Z,18.30
2022-07-25T04:50:38.067Z,15.00
2022-07-25T04:53:39.696Z,15.30
2022-07-25T04:56:41.313Z,15.03
2022-07-25T04:59:44.192Z,16.77
2022-07-25T05:02:45.906Z,16.00
2022-07-25T05:05:47.554Z,15.00
2022-07-25T05:08:49.186Z,16.60
2022-07-25T05:11:55.930Z,15.60
2022-07-25T05:14:58.358Z,16.47
2022-07-25T05:18:00.052Z,16.77
2022-07-25T05:21:01.765Z,17.50
2022-07-25T05:24:04.246Z,17.50
2022-07-25T05:27:06.142Z,17.43
2022-07-25T05:30:09.920Z,16.73
2022-07-25T05:33:11.549Z,19.33
2022-07-25T05:36:13.196Z,20.27
2022-07-25T05:39:15.029Z,19.13
2022-07-25T05:42:16.628Z,16.17
2022-07-25T05:45:18.237Z,16.27
2022-07-25T05:48:19.839Z,16.97
2022-07-25T05:51:21.443Z,16.53
2022-07-25T05:54:23.118Z,15.80
2022-07-25T05:57:24.715Z,17.50
2022-07-25T06:00:26.747Z,16.07
2022-07-25T06:03:28.488Z,15.37
2022-07-25T06:06:32.608Z,35.83
2022-07-25T06:09:34.214Z,15.77
2022-07-25T06:12:36.702Z,15.97
2022-07-25T06:15:38.684Z,16.60
2022-07-25T06:18:40.305Z,19.43
2022-07-25T06:21:41.961Z,18.10
2022-07-25T06:24:43.613Z,17.40
2022-07-25T06:27:45.256Z,16.33
2022-07-25T06:30:47.339Z,15.73
2022-07-25T06:33:49.203Z,19.13
2022-07-25T06:36:50.871Z,16.10
2022-07-25T06:39:52.713Z,16.63
2022-07-25T06:42:54.602Z,14.30
2022-07-25T06:45:56.248Z,16.17
2022-07-25T06:48:57.931Z,17.30
2022-07-25T06:51:59.620Z,15.97
2022-07-25T06:55:01.765Z,14.67
2022-07-25T06:58:03.606Z,16.23
2022-07-25T07:01:05.401Z,15.47
2022-07-25T07:04:07.342Z,14.53
2022-07-25T07:07:09.315Z,14.80
2022-07-25T07:10:10.996Z,15.53
2022-07-25T07:13:15.182Z,15.70
2022-07-25T07:16:20.223Z,15.27
2022-07-25T07:19:22.421Z,16.20
2022-07-25T07:22:24.173Z,13.03
2022-07-25T07:25:28.436Z,15.40
2022-07-25T07:28:30.374Z,14.00
2022-07-25T07:31:32.216Z,13.40
2022-07-25T07:34:33.891Z,15.20
2022-07-25T07:37:41.445Z,13.70
2022-07-25T07:40:45.022Z,13.97
2022-07-25T07:43:47.004Z,13.40
2022-07-25T07:46:48.919Z,14.00
2022-07-25T07:49:51.060Z,13.33
2022-07-25T07:52:54.936Z,13.80
2022-07-25T07:55:56.583Z,12.90
2022-07-25T07:58:58.211Z,14.43
2022-07-25T08:02:00.042Z,14.93
2022-07-25T08:05:01.785Z,14.33
2022-07-25T08:08:03.968Z,13.50
2022-07-25T08:11:05.715Z,14.80
2022-07-25T08:14:07.891Z,13.90
2022-07-25T08:17:09.710Z,13.47
2022-07-25T08:20:36.926Z,14.23
2022-07-25T08:23:38.643Z,13.00
2022-07-25T08:26:40.355Z,14.57
2022-07-25T08:29:41.959Z,14.33
2022-07-25T08:32:56.222Z,14.15
2022-07-25T08:36:01.018Z,14.57
2022-07-25T08:39:03.160Z,15.33
2022-07-25T08:42:10.629Z,14.75
2022-07-25T08:45:13.880Z,14.73
2022-07-25T08:48:23.818Z,14.65
2022-07-25T08:51:25.947Z,14.15
2022-07-25T08:54:27.609Z,14.73
2022-07-25T08:57:29.240Z,14.77
2022-07-25T09:00:30.863Z,14.75
2022-07-25T09:03:33.006Z,14.63
2022-07-25T09:06:35.236Z,14.20
2022-07-25T09:09:38.898Z,14.15
2022-07-25T09:12:41.749Z,14.23
2022-07-25T09:15:49.556Z,14.88
2022-07-25T09:18:51.793Z,14.10
2022-07-25T09:21:59.791Z,13.98
2022-07-25T09:25:01.423Z,13.93
2022-07-25T09:28:15.920Z,14.30
2022-07-25T09:31:21.206Z,13.82
2022-07-25T09:34:37.713Z,13.32
2022-07-25T09:37:39.586Z,13.75
2022-07-25T09:40:42.479Z,12.93
2022-07-25T09:43:44.670Z,14.15
2022-07-25T09:46:46.400Z,13.18
2022-07-25T09:49:48.096Z,13.05
2022-07-25T09:52:52.898Z,14.00
2022-07-25T09:55:56.769Z,13.57
2022-07-25T09:58:58.723Z,13.93
2022-07-25T10:02:17.757Z,13.18
2022-07-25T10:05:48.601Z,12.05
2022-07-25T10:08:51.486Z,14.02
2022-07-25T10:12:10.589Z,13.45
2022-07-25T10:15:14.048Z,13.48
2022-07-25T10:18:17.814Z,13.23
2022-07-25T10:21:26.756Z,13.30
2022-07-25T10:24:37.514Z,12.07
2022-07-25T10:27:50.536Z,12.18
2022-07-25T10:30:58.558Z,12.35
2022-07-25T10:34:06.485Z,12.38
2022-07-25T10:37:18.358Z,13.75
2022-07-25T10:40:35.435Z,12.93
2022-07-25T10:43:39.069Z,13.90
2022-07-25T10:46:43.904Z,12.98
2022-07-25T10:50:15.236Z,13.07
2022-07-25T10:53:09.805Z,12.88
2022-07-25T10:56:22.636Z,12.10
2022-07-25T10:59:29.314Z,13.70
2022-07-25T11:02:31.179Z,12.13
2022-07-25T11:05:44.745Z,12.82
2022-07-25T11:08:46.721Z,12.38
2022-07-25T11:11:50.630Z,12.77
2022-07-25T11:15:00.473Z,13.10
2022-07-25T11:18:02.083Z,12.45
2022-07-25T11:21:08.547Z,12.40
2022-07-25T11:24:10.147Z,12.73
2022-07-25T11:27:20.943Z,12.43
2022-07-25T11:30:22.741Z,12.18
2022-07-25T11:33:24.472Z,13.73
2022-07-25T11:36:26.220Z,13.10
2022-07-25T11:39:33.067Z,12.85
2022-07-25T11:42:44.563Z,14.60
2022-07-25T11:45:56.877Z,13.43
2022-07-25T11:49:06.576Z,12.98
2022-07-25T11:52:38.269Z,11.82
2022-07-25T11:55:42.279Z,10.95
2022-07-25T11:58:49.644Z,12.13
2022-07-25T12:01:51.584Z,9.50
2022-07-25T12:04:54.952Z,9.45
2022-07-25T12:07:56.616Z,9.35
2022-07-25T12:10:58.347Z,9.55
2022-07-25T12:14:04.785Z,9.10
2022-07-25T12:17:06.398Z,9.07
2022-07-25T12:20:27.285Z,9.45
2022-07-25T12:23:28.881Z,8.63
2022-07-25T12:26:30.560Z,9.00
2022-07-25T12:29:32.201Z,9.20
2022-07-25T12:32:34.453Z,9.43
2022-07-25T12:35:39.395Z,9.85
2022-07-25T12:38:41.031Z,9.50
2022-07-25T12:41:43.055Z,10.27
2022-07-25T12:44:44.813Z,9.32
2022-07-25T12:47:47.939Z,9.52
2022-07-25T12:50:49.684Z,9.30
2022-07-25T12:53:51.314Z,9.13
2022-07-25T12:56:52.995Z,9.70
2022-07-25T12:59:54.639Z,10.02
2022-07-25T13:02:56.497Z,8.98
2022-07-25T13:05:58.531Z,8.85
2022-07-25T13:09:00.170Z,9.98
2022-07-25T13:12:01.797Z,9.65
2022-07-25T13:15:04.189Z,10.98
2022-07-25T13:18:06.073Z,11.05
2022-07-25T13:21:07.687Z,10.63
2022-07-25T13:24:10.458Z,10.38
2022-07-25T13:27:12.275Z,10.65
2022-07-25T13:30:14.485Z,9.88
2022-07-25T13:33:17.206Z,9.90
2022-07-25T13:36:19.276Z,9.70
2022-07-25T13:39:23.820Z,10.10
2022-07-25T13:42:25.526Z,9.68
2022-07-25T13:45:27.237Z,11.43
2022-07-25T13:48:30.839Z,9.68
2022-07-25T13:51:33.022Z,9.88
2022-07-25T13:54:34.706Z,9.50
2022-07-25T13:57:36.335Z,10.40
2022-07-25T14:00:37.927Z,10.10
2022-07-25T14:03:39.621Z,9.40
2022-07-25T14:06:41.745Z,9.93
2022-07-25T14:09:43.415Z,10.63
2022-07-25T14:12:45.673Z,10.63
2022-07-25T14:15:47.368Z,11.60
2022-07-25T14:18:48.987Z,11.68
2022-07-25T14:21:50.612Z,11.18
2022-07-25T14:24:52.298Z,12.13
2022-07-25T14:27:53.973Z,10.68
2022-07-25T14:30:55.785Z,10.30
2022-07-25T14:33:58.030Z,11.25
2022-07-25T14:37:00.069Z,11.00
2022-07-25T14:40:03.473Z,11.65
2022-07-25T14:43:05.127Z,10.43
2022-07-25T14:46:08.204Z,13.48
2022-07-25T14:49:14.155Z,11.40
2022-07-25T14:52:16.375Z,10.63
2022-07-25T14:55:18.681Z,9.82
2022-07-25T14:58:20.295Z,10.20
2022-07-25T15:01:25.207Z,9.43
2022-07-25T15:04:28.000Z,10.35
2022-07-25T15:07:29.628Z,10.05
2022-07-25T15:10:31.270Z,10.02
2022-07-25T15:13:33.078Z,9.35
2022-07-25T15:16:34.856Z,10.30
2022-07-25T15:19:36.605Z,10.18
2022-07-25T15:22:38.225Z,10.10
2022-07-25T15:29:01.662Z,10.18
2022-07-25T15:32:05.474Z,11.48
2022-07-25T15:35:08.288Z,9.77
2022-07-25T15:38:09.973Z,10.35
2022-07-25T15:41:12.075Z,10.70
2022-07-25T15:44:13.723Z,11.00
2022-07-25T15:47:15.595Z,11.10
2022-07-25T15:50:18.197Z,10.82
2022-07-25T15:53:20.148Z,11.57
2022-07-25T15:56:21.926Z,11.93
2022-07-25T15:59:23.581Z,11.07
2022-07-25T16:02:25.486Z,11.02
2022-07-25T16:05:27.186Z,10.07
2022-07-25T16:08:28.853Z,9.65
2022-07-25T16:11:30.636Z,9.95
2022-07-25T16:14:32.267Z,9.80
2022-07-25T16:17:36.906Z,9.93
2022-07-25T16:20:38.596Z,9.15
2022-07-25T16:23:45.004Z,9.00
2022-07-25T16:26:48.914Z,9.10
2022-07-25T16:29:50.944Z,9.40
2022-07-25T16:32:52.598Z,8.98
2022-07-25T16:35:54.262Z,8.68
2022-07-25T16:38:55.919Z,8.27
2022-07-25T16:41:57.555Z,17.13
2022-07-25T16:44:59.237Z,10.65
2022-07-25T16:48:00.901Z,8.40
2022-07-25T16:51:02.512Z,8.70
2022-07-25T16:54:04.443Z,8.63
2022-07-25T16:57:06.351Z,8.40
2022-07-25T17:00:09.287Z,9.57
2022-07-25T17:03:10.889Z,9.00
2022-07-25T17:06:12.539Z,8.73
2022-07-25T17:09:14.189Z,11.38
2022-07-25T17:12:17.298Z,7.55
2022-07-25T17:15:20.025Z,8.60
2022-07-25T17:18:21.760Z,8.15
2022-07-25T17:21:23.364Z,9.35
2022-07-25T17:24:24.978Z,9.23
2022-07-25T17:27:26.709Z,8.82
2022-07-25T17:30:28.352Z,7.20
2022-07-25T17:33:30.021Z,7.03
2022-07-25T17:36:31.712Z,7.45
2022-07-25T17:39:34.065Z,7.33
2022-07-25T17:42:35.646Z,5.80
2022-07-25T17:45:37.293Z,6.40
2022-07-25T17:48:40.609Z,5.85
2022-07-25T17:51:42.242Z,8.07
2022-07-25T17:54:43.923Z,4.97
2022-07-25T17:57:46.109Z,5.18
2022-07-25T18:00:47.785Z,5.10
2022-07-25T18:03:50.494Z,5.07
2022-07-25T18:06:52.188Z,4.93
2022-07-25T18:09:53.796Z,5.83
2022-07-25T18:12:55.501Z,5.30
2022-07-25T18:15:57.228Z,5.10
2022-07-25T18:18:58.966Z,4.77
2022-07-25T18:22:00.556Z,4.77
2022-07-25T18:25:02.191Z,5.20
2022-07-25T18:28:04.148Z,4.30
2022-07-25T18:31:06.005Z,4.17
2022-07-25T18:34:08.179Z,4.20
2022-07-25T18:37:10.221Z,4.43
2022-07-25T18:40:12.596Z,8.83
2022-07-25T18:43:14.438Z,7.87
2022-07-25T18:46:16.698Z,7.23
2022-07-25T18:49:18.481Z,4.27
2022-07-25T18:52:20.955Z,10.63
2022-07-25T18:55:22.645Z,5.30
2022-07-25T18:58:24.722Z,6.83
2022-07-25T19:01:26.366Z,4.73
2022-07-25T19:04:29.182Z,6.60
2022-07-25T19:07:31.297Z,4.83
2022-07-25T19:10:33.056Z,4.57
2022-07-25T19:13:53.118Z,3.93
2022-07-25T19:16:55.090Z,8.87
2022-07-25T19:19:56.782Z,7.87
2022-07-25T19:22:58.387Z,3.17
2022-07-25T19:26:01.907Z,4.33
2022-07-25T19:29:06.853Z,5.30
2022-07-25T19:32:08.621Z,3.60
2022-07-25T19:35:10.792Z,3.20
2022-07-25T19:38:12.446Z,3.23
2022-07-25T19:41:14.468Z,6.30
2022-07-25T19:44:16.120Z,4.23
2022-07-25T19:47:17.861Z,4.47
2022-07-25T19:50:19.754Z,3.00
2022-07-25T19:53:26.735Z,4.97
2022-07-25T19:56:30.849Z,2.77
2022-07-25T19:59:32.579Z,3.40
2022-07-25T20:02:34.203Z,3.53
2022-07-25T20:05:36.110Z,2.87
2022-07-25T20:08:39.261Z,3.50
2022-07-25T20:11:40.995Z,3.83
2022-07-25T20:14:42.672Z,3.47
2022-07-25T20:17:44.395Z,2.70
2022-07-25T20:20:46.188Z,3.73
2022-07-25T20:23:48.342Z,4.47
2022-07-25T20:26:50.091Z,3.90
2022-07-25T20:29:51.760Z,5.73
2022-07-25T20:32:53.556Z,3.33
2022-07-25T20:35:55.718Z,4.13
2022-07-25T20:38:57.344Z,3.00
2022-07-25T20:42:01.014Z,3.93
2022-07-25T20:45:03.045Z,4.67
2022-07-25T20:48:05.688Z,3.77
2022-07-25T20:51:07.388Z,3.63
2022-07-25T20:54:09.330Z,3.17
2022-07-25T20:57:11.642Z,2.67
2022-07-25T21:00:13.921Z,3.50
2022-07-25T21:03:15.519Z,4.37
2022-07-25T21:06:17.125Z,3.20
2022-07-25T21:09:18.776Z,5.03
2022-07-25T21:12:20.953Z,6.60
2022-07-25T21:15:23.685Z,2.97
2022-07-25T21:18:25.308Z,3.80
2022-07-25T21:21:27.056Z,3.33
2022-07-25T21:24:28.698Z,3.47
2022-07-25T21:27:30.448Z,2.80
2022-07-25T21:30:32.138Z,3.63
2022-07-25T21:33:33.750Z,4.30
2022-07-25T21:36:35.368Z,4.00
2022-07-25T21:39:39.741Z,3.87
2022-07-25T21:42:41.713Z,4.33
2022-07-25T21:45:43.494Z,4.40
2022-07-25T21:49:03.948Z,3.90
2022-07-25T21:52:06.088Z,3.70
2022-07-25T21:55:08.458Z,3.37
2022-07-25T21:58:10.082Z,4.40
2022-07-25T22:01:12.073Z,4.30
2022-07-25T22:04:13.803Z,2.93
2022-07-25T22:11:43.123Z,4.90
2022-07-25T22:14:48.018Z,3.27
2022-07-25T22:17:50.150Z,2.77
2022-07-25T22:20:51.934Z,3.00
2022-07-25T22:23:53.533Z,3.53
2022-07-25T22:26:55.198Z,3.53
2022-07-25T22:29:57.391Z,4.80
2022-07-25T22:32:59.003Z,3.40
2022-07-25T22:36:01.331Z,3.10
2022-07-25T22:39:03.869Z,3.00
2022-07-25T22:42:05.848Z,3.10
2022-07-25T22:45:08.303Z,4.27
2022-07-25T22:48:09.976Z,3.40
2022-07-25T22:51:11.871Z,7.53
2022-07-25T22:54:13.461Z,2.67
2022-07-25T22:57:15.074Z,3.33
2022-07-25T23:00:16.940Z,3.30
2022-07-25T23:03:18.643Z,3.23
2022-07-25T23:06:21.804Z,5.07
2022-07-25T23:09:23.496Z,3.67
2022-07-25T23:12:25.113Z,2.53
2022-07-25T23:15:26.868Z,3.70
2022-07-25T23:18:48.443Z,3.33
2022-07-25T23:21:50.036Z,3.83
2022-07-25T23:24:51.654Z,3.20
2022-07-25T23:27:53.266Z,3.30
2022-07-25T23:30:55.022Z,3.10
2022-07-25T23:33:56.627Z,3.10
2022-07-25T23:36:58.243Z,3.03
2022-07-25T23:39:59.809Z,3.80
2022-07-25T23:43:01.387Z,4.10
2022-07-25T23:46:05.295Z,4.03
2022-07-25T23:49:10.465Z,4.47
2022-07-25T23:52:12.421Z,3.47
2022-07-25T23:55:14.056Z,4.20
2022-07-25T23:58:15.892Z,3.03
